Date,TemperatureHighF,TemperatureAvgF,TemperatureLowF,DewpointHighF,DewpointAvgF,DewpointLowF,HumidityHigh,HumidityAvg,HumidityLow,PressureMaxIn,PressureMinIn,WindSpeedMaxMPH,WindSpeedAvgMPH,GustSpeedMaxMPH,PrecipitationSumIn
2013-8-1,93,85,74,62,54,48,64,37,22,29.83,29.66,15,4,21,0.00
2013-8-2,94,83,72,62,58,54,68,45,27,29.73,29.61,9,2,18,0.15
2013-8-3,94,84,73,61,57,52,64,42,25,29.76,29.64,8,2,11,0.00
2013-8-4,97,87,77,60,54,49,50,34,21,29.76,29.59,7,2,14,0.00
2013-8-5,96,83,72,60,55,46,66,40,20,29.74,29.60,11,4,19,0.01
2013-8-6,90,79,69,60,56,49,66,47,26,29.78,29.66,11,3,17,0.00
2013-8-7,87,78,68,59,55,51,68,48,30,29.79,29.66,12,4,17,0.00
2013-8-8,91,81,69,56,50,40,56,36,20,29.76,29.63,11,2,14,0.00
2013-8-9,96,85,76,52,44,40,33,24,16,29.74,29.64,15,5,22,0.00
2013-8-10,84,78,67,63,56,47,86,48,29,29.89,29.74,22,9,27,0.00
2013-8-11,90,78,66,61,57,50,84,51,28,29.91,29.74,15,6,24,0.00
2013-8-12,92,83,75,60,56,52,53,41,26,29.81,29.66,21,7,23,0.00
2013-8-13,92,83,73,64,58,50,69,44,30,29.80,29.66,21,6,21,0.01
2013-8-14,94,83,68,63,57,53,82,43,27,29.84,29.64,21,8,30,0.28
2013-8-15,89,78,66,63,58,49,88,52,31,29.85,29.74,13,2,21,0.09
2013-8-16,93,83,72,61,56,46,63,41,20,29.84,29.71,15,2,21,0.00
2013-8-17,96,86,75,57,49,43,45,29,17,29.81,29.64,13,3,21,0.00
2013-8-18,96,86,76,54,49,45,40,28,18,29.78,29.64,19,6,29,0.07
2013-8-19,95,83,75,57,52,43,50,35,22,29.77,29.64,15,3,20,0.11
2013-8-20,93,83,73,58,50,45,52,34,20,29.74,29.64,17,4,23,0.00
2013-8-21,92,82,71,58,48,31,59,34,15,29.78,29.65,15,4,21,0.00
2013-8-22,90,82,74,54,46,34,47,30,14,29.81,29.65,21,8,24,0.00
2013-8-23,89,79,72,57,53,47,52,41,23,29.77,29.64,24,10,27,0.00
2013-8-24,87,78,71,58,56,53,62,47,33,29.82,29.70,24,10,27,0.00
2013-8-25,92,82,71,59,54,50,65,41,24,29.88,29.73,20,7,25,0.00
2013-8-26,90,81,74,56,53,50,52,39,27,29.85,29.71,17,6,32,0.00
2013-8-27,84,77,71,61,57,53,66,51,37,29.82,29.70,26,7,29,0.22
2013-8-28,77,72,68,67,63,60,91,74,60,29.90,29.75,12,4,17,0.00
2013-8-29,77,70,64,67,64,61,95,81,65,29.99,29.89,16,3,26,0.65
2013-8-30,87,77,69,66,62,59,78,62,40,29.93,29.75,4,1,10,0.00
2013-8-31,93,82,70,64,58,50,73,46,26,29.77,29.60,8,2,11,0.00